Terminal Aerodrome Forecast
Issued by NWS North Platte, NE

Home | Current Version | Previous Version | Graphics & Text | Print | Product List | Glossary Off
Versions: 1 2 3 4 5 6 7 8 9 10 11 12 13 14 15 16 17 18

000
FTUS43 KLBF 300520
TAFVTN
TAF
KVTN 300520Z 3006/0106 05008KT P6SM OVC110
     FM301100 01010KT P6SM OVC120
     FM301400 36014G22KT P6SM OVC120
     FM301800 36022G34KT P6SM OVC120
     FM010100 34015G23KT P6SM BKN150=

USA.gov is the U.S. government's official web portal to all federal, state and local government web resources and services.